sensor_id;sensor_type;location;lat;lon;timestamp;pressure;altitude;pressure_sealevel;temperature;humidity
86094;BME280;76710;42.684;23.330;2024-03-23T00:55:44;95309.97;;;3.74;61.00
86094;BME280;76710;42.684;23.330;2024-03-23T00:58:09;95316.69;;;3.68;61.74
86094;BME280;76710;42.684;23.330;2024-03-23T01:00:35;95313.38;;;3.68;61.51
86094;BME280;76710;42.684;23.330;2024-03-23T01:03:00;95295.38;;;3.63;62.22
86094;BME280;76710;42.684;23.330;2024-03-23T01:05:26;95303.44;;;3.60;61.81
86094;BME280;76710;42.684;23.330;2024-03-23T01:07:52;95300.31;;;3.58;62.04
86094;BME280;76710;42.684;23.330;2024-03-23T01:10:17;95303.47;;;3.53;62.14
86094;BME280;76710;42.684;23.330;2024-03-23T01:12:43;95291.53;;;3.54;62.61
86094;BME280;76710;42.684;23.330;2024-03-23T01:15:08;95291.97;;;3.51;61.85
86094;BME280;76710;42.684;23.330;2024-03-23T01:17:34;95295.34;;;3.45;62.44
86094;BME280;76710;42.684;23.330;2024-03-23T01:20:00;95299.03;;;3.49;62.65
86094;BME280;76710;42.684;23.330;2024-03-23T01:22:25;95292.94;;;3.50;62.56
86094;BME280;76710;42.684;23.330;2024-03-23T01:24:51;95299.16;;;3.54;62.48
86094;BME280;76710;42.684;23.330;2024-03-23T01:27:16;95288.25;;;3.47;62.26
86094;BME280;76710;42.684;23.330;2024-03-23T01:29:42;95296.69;;;3.47;61.93
86094;BME280;76710;42.684;23.330;2024-03-23T01:32:07;95299.41;;;3.46;61.90
86094;BME280;76710;42.684;23.330;2024-03-23T01:34:33;95298.69;;;3.39;62.54
86094;BME280;76710;42.684;23.330;2024-03-23T01:36:58;95307.16;;;3.33;63.08
86094;BME280;76710;42.684;23.330;2024-03-23T01:39:24;95296.81;;;3.28;62.40
86094;BME280;76710;42.684;23.330;2024-03-23T01:41:50;95300.16;;;3.21;62.93
86094;BME280;76710;42.684;23.330;2024-03-23T01:44:16;95310.03;;;3.11;64.02
86094;BME280;76710;42.684;23.330;2024-03-23T01:46:43;95301.25;;;3.01;64.03
86094;BME280;76710;42.684;23.330;2024-03-23T01:49:08;95295.59;;;2.99;64.12
86094;BME280;76710;42.684;23.330;2024-03-23T01:51:35;95295.56;;;3.05;63.97
86094;BME280;76710;42.684;23.330;2024-03-23T01:54:02;95295.38;;;3.00;64.58
86094;BME280;76710;42.684;23.330;2024-03-23T01:56:31;95298.75;;;2.94;64.79
86094;BME280;76710;42.684;23.330;2024-03-23T01:58:59;95304.16;;;3.04;64.39
86094;BME280;76710;42.684;23.330;2024-03-23T02:01:24;95305.59;;;2.94;64.67
86094;BME280;76710;42.684;23.330;2024-03-23T02:03:50;95298.75;;;2.94;64.16
86094;BME280;76710;42.684;23.330;2024-03-23T02:06:16;95307.59;;;2.92;64.11
86094;BME280;76710;42.684;23.330;2024-03-23T02:08:41;95302.50;;;2.85;64.60
86094;BME280;76710;42.684;23.330;2024-03-23T02:11:07;95308.41;;;2.79;65.41
86094;BME280;76710;42.684;23.330;2024-03-23T02:13:32;95309.81;;;2.75;65.22
86094;BME280;76710;42.684;23.330;2024-03-23T02:16:01;95310.97;;;2.79;64.76
86094;BME280;76710;42.684;23.330;2024-03-23T02:18:36;95311.34;;;2.83;64.85
86094;BME280;76710;42.684;23.330;2024-03-23T02:21:02;95305.06;;;2.85;65.06
86094;BME280;76710;42.684;23.330;2024-03-23T02:23:28;95310.13;;;2.85;64.54
86094;BME280;76710;42.684;23.330;2024-03-23T02:25:54;95312.06;;;2.90;64.34
86094;BME280;76710;42.684;23.330;2024-03-23T02:28:20;95316.38;;;2.89;64.49
86094;BME280;76710;42.684;23.330;2024-03-23T02:30:49;95309.53;;;2.90;64.54
86094;BME280;76710;42.684;23.330;2024-03-23T02:33:15;95311.88;;;2.91;64.78
86094;BME280;76710;42.684;23.330;2024-03-23T02:35:42;95313.84;;;2.89;63.83
86094;BME280;76710;42.684;23.330;2024-03-23T02:38:07;95315.03;;;2.87;64.32
86094;BME280;76710;42.684;23.330;2024-03-23T02:40:33;95311.13;;;2.84;63.78
86094;BME280;76710;42.684;23.330;2024-03-23T02:42:58;95306.09;;;2.71;64.93
86094;BME280;76710;42.684;23.330;2024-03-23T02:45:24;95309.25;;;2.60;65.32
86094;BME280;76710;42.684;23.330;2024-03-23T02:47:50;95304.16;;;2.60;64.89
86094;BME280;76710;42.684;23.330;2024-03-23T02:50:18;95308.69;;;2.58;65.34
86094;BME280;76710;42.684;23.330;2024-03-23T02:52:44;95307.72;;;2.59;65.40
86094;BME280;76710;42.684;23.330;2024-03-23T02:55:10;95298.91;;;2.55;65.83
86094;BME280;76710;42.684;23.330;2024-03-23T02:57:35;95300.28;;;2.57;65.47
86094;BME280;76710;42.684;23.330;2024-03-23T03:00:01;95297.38;;;2.47;65.88
86094;BME280;76710;42.684;23.330;2024-03-23T03:02:27;95297.81;;;2.38;66.34
86094;BME280;76710;42.684;23.330;2024-03-23T03:04:52;95298.97;;;2.35;65.92
86094;BME280;76710;42.684;23.330;2024-03-23T03:07:18;95302.06;;;2.44;65.78
86094;BME280;76710;42.684;23.330;2024-03-23T03:09:43;95294.66;;;2.42;65.92
86094;BME280;76710;42.684;23.330;2024-03-23T03:12:09;95300.34;;;2.38;66.03
86094;BME280;76710;42.684;23.330;2024-03-23T03:14:34;95303.88;;;2.23;66.40
86094;BME280;76710;42.684;23.330;2024-03-23T03:17:00;95307.78;;;2.26;66.90
86094;BME280;76710;42.684;23.330;2024-03-23T03:19:26;95298.44;;;2.13;67.16
86094;BME280;76710;42.684;23.330;2024-03-23T03:21:52;95305.63;;;2.23;67.22
86094;BME280;76710;42.684;23.330;2024-03-23T03:24:18;95306.03;;;2.20;67.07
86094;BME280;76710;42.684;23.330;2024-03-23T03:26:43;95302.16;;;2.17;67.25
86094;BME280;76710;42.684;23.330;2024-03-23T03:29:09;95307.97;;;2.18;66.75
86094;BME280;76710;42.684;23.330;2024-03-23T03:31:35;95307.81;;;2.13;67.42
86094;BME280;76710;42.684;23.330;2024-03-23T03:34:01;95308.44;;;1.89;67.94
86094;BME280;76710;42.684;23.330;2024-03-23T03:36:27;95310.56;;;1.85;68.36
86094;BME280;76710;42.684;23.330;2024-03-23T03:38:53;95302.75;;;1.93;67.85
86094;BME280;76710;42.684;23.330;2024-03-23T03:41:20;95306.47;;;1.97;67.37
86094;BME280;76710;42.684;23.330;2024-03-23T03:43:45;95307.81;;;1.93;67.36
86094;BME280;76710;42.684;23.330;2024-03-23T03:46:11;95305.47;;;1.85;67.79
86094;BME280;76710;42.684;23.330;2024-03-23T03:48:37;95314.09;;;1.77;67.81
86094;BME280;76710;42.684;23.330;2024-03-23T03:51:28;95321.50;;;1.79;68.21
86094;BME280;76710;42.684;23.330;2024-03-23T03:53:54;95312.31;;;1.65;68.56
86094;BME280;76710;42.684;23.330;2024-03-23T03:56:19;95318.94;;;1.53;68.39
86094;BME280;76710;42.684;23.330;2024-03-23T03:58:45;95310.78;;;1.51;68.56
86094;BME280;76710;42.684;23.330;2024-03-23T04:01:10;95311.94;;;1.42;68.74
86094;BME280;76710;42.684;23.330;2024-03-23T04:03:36;95311.16;;;1.34;69.30
86094;BME280;76710;42.684;23.330;2024-03-23T04:06:02;95318.53;;;1.29;69.39
86094;BME280;76710;42.684;23.330;2024-03-23T04:08:28;95309.19;;;1.30;69.09
86094;BME280;76710;42.684;23.330;2024-03-23T04:10:53;95314.66;;;1.40;68.70
86094;BME280;76710;42.684;23.330;2024-03-23T04:13:19;95320.91;;;1.37;68.82
86094;BME280;76710;42.684;23.330;2024-03-23T04:15:44;95329.09;;;1.39;68.46
86094;BME280;76710;42.684;23.330;2024-03-23T04:18:10;95326.94;;;1.36;68.99
86094;BME280;76710;42.684;23.330;2024-03-23T04:20:35;95312.72;;;1.35;68.81
86094;BME280;76710;42.684;23.330;2024-03-23T04:23:01;95322.47;;;1.38;69.04
86094;BME280;76710;42.684;23.330;2024-03-23T04:25:27;95328.50;;;1.37;68.90
86094;BME280;76710;42.684;23.330;2024-03-23T04:27:52;95328.31;;;1.52;68.51
86094;BME280;76710;42.684;23.330;2024-03-23T04:30:18;95325.41;;;1.62;68.12
86094;BME280;76710;42.684;23.330;2024-03-23T04:32:44;95324.41;;;1.56;68.14
86094;BME280;76710;42.684;23.330;2024-03-23T04:35:10;95321.69;;;1.58;68.21
86094;BME280;76710;42.684;23.330;2024-03-23T04:37:36;95323.84;;;1.61;67.52
86094;BME280;76710;42.684;23.330;2024-03-23T04:40:02;95329.13;;;1.66;68.22
86094;BME280;76710;42.684;23.330;2024-03-23T04:42:28;95324.44;;;1.76;67.68
86094;BME280;76710;42.684;23.330;2024-03-23T04:44:54;95335.56;;;1.68;67.46
86094;BME280;76710;42.684;23.330;2024-03-23T04:47:20;95332.63;;;1.58;68.00
86094;BME280;76710;42.684;23.330;2024-03-23T04:49:45;95331.25;;;1.62;68.02
86094;BME280;76710;42.684;23.330;2024-03-23T04:52:11;95344.34;;;1.66;67.97
86094;BME280;76710;42.684;23.330;2024-03-23T04:54:37;95337.72;;;1.71;67.88
86094;BME280;76710;42.684;23.330;2024-03-23T04:57:03;95337.31;;;1.74;68.20
86094;BME280;76710;42.684;23.330;2024-03-23T04:59:28;95346.31;;;1.83;67.63
86094;BME280;76710;42.684;23.330;2024-03-23T05:01:53;95340.06;;;1.86;67.33
86094;BME280;76710;42.684;23.330;2024-03-23T05:04:19;95340.25;;;1.78;67.74
86094;BME280;76710;42.684;23.330;2024-03-23T05:06:45;95343.97;;;1.89;67.43
86094;BME280;76710;42.684;23.330;2024-03-23T05:09:11;95338.91;;;1.89;67.26
86094;BME280;76710;42.684;23.330;2024-03-23T05:11:43;95332.63;;;1.91;67.42
86094;BME280;76710;42.684;23.330;2024-03-23T05:14:13;95331.66;;;1.99;67.28
86094;BME280;76710;42.684;23.330;2024-03-23T05:16:39;95327.75;;;2.03;67.14
86094;BME280;76710;42.684;23.330;2024-03-23T05:19:08;95330.69;;;2.13;66.99
86094;BME280;76710;42.684;23.330;2024-03-23T05:21:33;95333.19;;;2.32;66.69
86094;BME280;76710;42.684;23.330;2024-03-23T05:23:59;95323.94;;;2.58;65.64
86094;BME280;76710;42.684;23.330;2024-03-23T05:26:24;95325.44;;;2.72;64.61
86094;BME280;76710;42.684;23.330;2024-03-23T05:28:50;95324.44;;;2.79;64.48
86094;BME280;76710;42.684;23.330;2024-03-23T05:31:26;95326.38;;;2.84;64.22
86094;BME280;76710;42.684;23.330;2024-03-23T05:33:51;95329.47;;;2.93;64.00
86094;BME280;76710;42.684;23.330;2024-03-23T05:36:18;95332.72;;;3.06;63.49
86094;BME280;76710;42.684;23.330;2024-03-23T05:38:44;95328.56;;;3.18;62.89
86094;BME280;76710;42.684;23.330;2024-03-23T05:41:09;95326.50;;;3.34;62.56
86094;BME280;76710;42.684;23.330;2024-03-23T05:43:35;95329.56;;;3.49;62.38
86094;BME280;76710;42.684;23.330;2024-03-23T05:46:01;95326.72;;;3.63;61.85
86094;BME280;76710;42.684;23.330;2024-03-23T05:48:36;95327.19;;;3.79;60.89
86094;BME280;76710;42.684;23.330;2024-03-23T05:51:01;95328.28;;;3.89;60.41
86094;BME280;76710;42.684;23.330;2024-03-23T05:53:28;95324.97;;;4.13;59.87
86094;BME280;76710;42.684;23.330;2024-03-23T05:56:02;95322.38;;;4.38;58.75
86094;BME280;76710;42.684;23.330;2024-03-23T05:58:31;95325.00;;;4.68;58.07
86094;BME280;76710;42.684;23.330;2024-03-23T06:00:57;95327.81;;;4.96;56.86
86094;BME280;76710;42.684;23.330;2024-03-23T06:03:24;95329.84;;;5.36;55.83
86094;BME280;76710;42.684;23.330;2024-03-23T06:05:50;95327.75;;;5.86;53.04
86094;BME280;76710;42.684;23.330;2024-03-23T06:08:16;95326.91;;;6.38;53.09
86094;BME280;76710;42.684;23.330;2024-03-23T06:10:41;95313.69;;;6.93;51.66
86094;BME280;76710;42.684;23.330;2024-03-23T06:13:07;95318.41;;;7.41;51.11
86094;BME280;76710;42.684;23.330;2024-03-23T06:15:33;95320.31;;;7.96;47.94
86094;BME280;76710;42.684;23.330;2024-03-23T06:18:03;95322.78;;;8.41;47.08
86094;BME280;76710;42.684;23.330;2024-03-23T06:20:29;95315.09;;;8.79;46.66
86094;BME280;76710;42.684;23.330;2024-03-23T06:22:54;95316.84;;;9.00;44.95
86094;BME280;76710;42.684;23.330;2024-03-23T06:25:20;95313.44;;;9.43;43.79
86094;BME280;76710;42.684;23.330;2024-03-23T06:27:45;95311.22;;;9.84;43.19
86094;BME280;76710;42.684;23.330;2024-03-23T06:30:11;95315.78;;;10.08;41.97
86094;BME280;76710;42.684;23.330;2024-03-23T06:32:37;95318.75;;;10.22;41.53
86094;BME280;76710;42.684;23.330;2024-03-23T06:35:03;95318.75;;;10.22;41.89
86094;BME280;76710;42.684;23.330;2024-03-23T06:37:34;95324.22;;;10.31;41.05
86094;BME280;76710;42.684;23.330;2024-03-23T06:40:08;95304.53;;;10.51;41.21
86094;BME280;76710;42.684;23.330;2024-03-23T06:42:35;95308.19;;;10.65;41.68
86094;BME280;76710;42.684;23.330;2024-03-23T06:45:01;95311.13;;;10.94;40.30
86094;BME280;76710;42.684;23.330;2024-03-23T06:47:28;95312.81;;;11.36;39.01
86094;BME280;76710;42.684;23.330;2024-03-23T06:49:53;95312.84;;;11.56;40.56
86094;BME280;76710;42.684;23.330;2024-03-23T06:52:19;95302.56;;;12.01;38.21
86094;BME280;76710;42.684;23.330;2024-03-23T06:54:44;95308.75;;;12.36;37.66
86094;BME280;76710;42.684;23.330;2024-03-23T06:57:11;95312.00;;;12.77;36.81
86094;BME280;76710;42.684;23.330;2024-03-23T06:59:37;95309.50;;;13.21;36.15
86094;BME280;76710;42.684;23.330;2024-03-23T07:02:04;95311.22;;;13.35;35.33
86094;BME280;76710;42.684;23.330;2024-03-23T07:04:29;95310.28;;;13.65;34.06
86094;BME280;76710;42.684;23.330;2024-03-23T07:06:55;95307.16;;;14.02;33.31
86094;BME280;76710;42.684;23.330;2024-03-23T07:09:20;95305.78;;;14.44;32.93
86094;BME280;76710;42.684;23.330;2024-03-23T07:11:50;95302.25;;;14.82;32.35
86094;BME280;76710;42.684;23.330;2024-03-23T07:14:15;95300.41;;;15.06;31.82
86094;BME280;76710;42.684;23.330;2024-03-23T07:16:41;95290.81;;;15.25;31.48
86094;BME280;76710;42.684;23.330;2024-03-23T07:19:06;95288.97;;;15.50;30.66
86094;BME280;76710;42.684;23.330;2024-03-23T07:21:32;95291.19;;;15.19;30.35
86094;BME280;76710;42.684;23.330;2024-03-23T07:23:57;95285.06;;;15.28;31.22
86094;BME280;76710;42.684;23.330;2024-03-23T07:26:23;95291.97;;;15.75;30.57
86094;BME280;76710;42.684;23.330;2024-03-23T07:28:48;95276.50;;;16.16;29.11
86094;BME280;76710;42.684;23.330;2024-03-23T07:31:14;95282.13;;;16.51;29.27
86094;BME280;76710;42.684;23.330;2024-03-23T07:33:45;95277.25;;;16.90;29.56
86094;BME280;76710;42.684;23.330;2024-03-23T07:36:11;95280.63;;;16.91;28.27
86094;BME280;76710;42.684;23.330;2024-03-23T07:38:36;95278.19;;;17.08;28.67
86094;BME280;76710;42.684;23.330;2024-03-23T07:41:06;95277.44;;;17.30;27.88
86094;BME280;76710;42.684;23.330;2024-03-23T07:43:32;95276.13;;;17.90;26.89
86094;BME280;76710;42.684;23.330;2024-03-23T07:45:58;95280.84;;;18.11;26.98
86094;BME280;76710;42.684;23.330;2024-03-23T07:48:24;95276.84;;;18.35;27.11
86094;BME280;76710;42.684;23.330;2024-03-23T07:51:22;95278.50;;;17.78;25.55
86094;BME280;76710;42.684;23.330;2024-03-23T07:53:49;95271.53;;;17.96;26.39
86094;BME280;76710;42.684;23.330;2024-03-23T07:56:19;95273.22;;;17.70;26.00
86094;BME280;76710;42.684;23.330;2024-03-23T07:58:45;95265.88;;;18.25;25.56
86094;BME280;76710;42.684;23.330;2024-03-23T08:01:11;95270.88;;;18.74;26.29
86094;BME280;76710;42.684;23.330;2024-03-23T08:03:37;95272.88;;;18.77;25.36
86094;BME280;76710;42.684;23.330;2024-03-23T08:06:15;95270.31;;;18.94;25.41
86094;BME280;76710;42.684;23.330;2024-03-23T08:08:43;95264.72;;;19.44;24.03
86094;BME280;76710;42.684;23.330;2024-03-23T08:11:09;95265.34;;;19.58;24.98
86094;BME280;76710;42.684;23.330;2024-03-23T08:13:35;95257.16;;;19.85;24.01
86094;BME280;76710;42.684;23.330;2024-03-23T08:16:02;95264.66;;;20.13;23.68
86094;BME280;76710;42.684;23.330;2024-03-23T08:18:29;95261.94;;;19.92;23.78
86094;BME280;76710;42.684;23.330;2024-03-23T08:23:26;95259.13;;;20.06;23.31
86094;BME280;76710;42.684;23.330;2024-03-23T08:25:52;95255.19;;;20.46;22.71
86094;BME280;76710;42.684;23.330;2024-03-23T08:28:22;95255.34;;;20.79;22.24
86094;BME280;76710;42.684;23.330;2024-03-23T08:30:47;95248.94;;;21.27;21.26
86094;BME280;76710;42.684;23.330;2024-03-23T08:33:15;95248.41;;;21.33;21.24
86094;BME280;76710;42.684;23.330;2024-03-23T08:35:40;95251.50;;;21.06;21.80
86094;BME280;76710;42.684;23.330;2024-03-23T08:38:06;95234.88;;;21.52;20.63
86094;BME280;76710;42.684;23.330;2024-03-23T08:40:31;95241.28;;;21.42;20.84
86094;BME280;76710;42.684;23.330;2024-03-23T08:42:57;95236.63;;;21.81;20.93
86094;BME280;76710;42.684;23.330;2024-03-23T08:45:24;95239.66;;;22.03;20.96
86094;BME280;76710;42.684;23.330;2024-03-23T08:47:50;95234.50;;;21.74;20.93
86094;BME280;76710;42.684;23.330;2024-03-23T08:50:15;95224.72;;;20.79;21.62
86094;BME280;76710;42.684;23.330;2024-03-23T08:52:41;95226.03;;;21.23;20.56
86094;BME280;76710;42.684;23.330;2024-03-23T08:55:06;95224.41;;;21.52;20.33
86094;BME280;76710;42.684;23.330;2024-03-23T08:57:32;95215.88;;;22.21;19.60
86094;BME280;76710;42.684;23.330;2024-03-23T08:59:57;95227.16;;;21.55;20.64
86094;BME280;76710;42.684;23.330;2024-03-23T09:02:23;95220.47;;;21.91;20.20
86094;BME280;76710;42.684;23.330;2024-03-23T09:04:48;95213.66;;;21.98;19.79
86094;BME280;76710;42.684;23.330;2024-03-23T09:07:14;95205.50;;;22.24;20.08
86094;BME280;76710;42.684;23.330;2024-03-23T09:09:39;95205.50;;;22.12;20.29
86094;BME280;76710;42.684;23.330;2024-03-23T09:12:05;95206.56;;;21.78;20.33
86094;BME280;76710;42.684;23.330;2024-03-23T09:14:31;95198.53;;;21.83;21.12
86094;BME280;76710;42.684;23.330;2024-03-23T09:16:57;95185.38;;;22.04;21.16
86094;BME280;76710;42.684;23.330;2024-03-23T09:19:22;95190.22;;;22.50;19.95
86094;BME280;76710;42.684;23.330;2024-03-23T09:21:49;95175.88;;;22.60;19.65
86094;BME280;76710;42.684;23.330;2024-03-23T09:24:14;95175.00;;;22.68;20.11
86094;BME280;76710;42.684;23.330;2024-03-23T09:26:39;95169.66;;;22.77;19.74
86094;BME280;76710;42.684;23.330;2024-03-23T09:29:05;95163.09;;;22.83;19.59
86094;BME280;76710;42.684;23.330;2024-03-23T09:31:30;95170.75;;;22.39;20.02
86094;BME280;76710;42.684;23.330;2024-03-23T09:33:58;95165.28;;;22.44;20.19
86094;BME280;76710;42.684;23.330;2024-03-23T09:36:23;95153.25;;;23.20;19.21
86094;BME280;76710;42.684;23.330;2024-03-23T09:38:49;95150.06;;;23.54;18.76
86094;BME280;76710;42.684;23.330;2024-03-23T09:41:14;95150.06;;;23.26;19.18
86094;BME280;76710;42.684;23.330;2024-03-23T09:43:40;95146.25;;;23.24;20.12
86094;BME280;76710;42.684;23.330;2024-03-23T09:46:05;95133.19;;;22.99;19.15
86094;BME280;76710;42.684;23.330;2024-03-23T09:48:31;95132.75;;;23.25;20.32
86094;BME280;76710;42.684;23.330;2024-03-23T09:50:57;95131.84;;;23.45;19.54
86094;BME280;76710;42.684;23.330;2024-03-23T09:53:22;95128.44;;;23.45;19.28
86094;BME280;76710;42.684;23.330;2024-03-23T09:55:48;95126.63;;;23.33;19.83
86094;BME280;76710;42.684;23.330;2024-03-23T09:58:16;95123.00;;;23.81;19.19
86094;BME280;76710;42.684;23.330;2024-03-23T10:00:42;95123.91;;;23.89;18.24
86094;BME280;76710;42.684;23.330;2024-03-23T10:03:08;95113.56;;;23.96;19.10
86094;BME280;76710;42.684;23.330;2024-03-23T10:05:36;95102.13;;;24.20;18.25
86094;BME280;76710;42.684;23.330;2024-03-23T10:10:39;95095.00;;;23.89;18.44
86094;BME280;76710;42.684;23.330;2024-03-23T10:13:05;95093.78;;;23.71;19.41
86094;BME280;76710;42.684;23.330;2024-03-23T10:15:34;95085.91;;;24.02;19.10
86094;BME280;76710;42.684;23.330;2024-03-23T10:18:17;95095.16;;;24.27;17.39
86094;BME280;76710;42.684;23.330;2024-03-23T10:20:44;95084.25;;;24.44;17.07
86094;BME280;76710;42.684;23.330;2024-03-23T10:23:18;95079.88;;;24.33;17.31
86094;BME280;76710;42.684;23.330;2024-03-23T10:25:44;95079.09;;;24.48;17.82
86094;BME280;76710;42.684;23.330;2024-03-23T10:28:11;95071.56;;;24.31;17.24
86094;BME280;76710;42.684;23.330;2024-03-23T10:30:37;95069.06;;;24.73;17.51
86094;BME280;76710;42.684;23.330;2024-03-23T10:33:12;95069.66;;;25.01;17.10
86094;BME280;76710;42.684;23.330;2024-03-23T10:35:38;95067.41;;;24.84;17.38
86094;BME280;76710;42.684;23.330;2024-03-23T10:38:07;95061.00;;;25.23;16.82
86094;BME280;76710;42.684;23.330;2024-03-23T10:40:36;95051.66;;;25.26;16.82
86094;BME280;76710;42.684;23.330;2024-03-23T10:43:06;95052.47;;;24.88;16.89
86094;BME280;76710;42.684;23.330;2024-03-23T10:45:33;95041.81;;;24.65;17.58
86094;BME280;76710;42.684;23.330;2024-03-23T10:47:59;95042.34;;;25.32;16.45
86094;BME280;76710;42.684;23.330;2024-03-23T10:50:24;95026.09;;;25.49;16.04
86094;BME280;76710;42.684;23.330;2024-03-23T10:52:52;95020.91;;;25.53;16.68
86094;BME280;76710;42.684;23.330;2024-03-23T10:55:19;95023.28;;;25.39;16.53
86094;BME280;76710;42.684;23.330;2024-03-23T10:57:54;95011.59;;;25.59;15.99
86094;BME280;76710;42.684;23.330;2024-03-23T11:00:21;95003.50;;;25.06;15.23
86094;BME280;76710;42.684;23.330;2024-03-23T11:02:48;95001.88;;;24.60;15.51
86094;BME280;76710;42.684;23.330;2024-03-23T11:07:52;94983.03;;;24.77;16.88
86094;BME280;76710;42.684;23.330;2024-03-23T11:10:29;94980.66;;;24.53;16.59
86094;BME280;76710;42.684;23.330;2024-03-23T11:12:56;94976.22;;;24.37;16.65
86094;BME280;76710;42.684;23.330;2024-03-23T11:15:22;94965.50;;;24.46;17.05
86094;BME280;76710;42.684;23.330;2024-03-23T11:20:33;94958.06;;;23.63;17.46
86094;BME280;76710;42.684;23.330;2024-03-23T11:22:59;94955.31;;;23.90;17.51
86094;BME280;76710;42.684;23.330;2024-03-23T11:25:26;94954.53;;;24.25;16.92
86094;BME280;76710;42.684;23.330;2024-03-23T11:27:54;94952.53;;;24.37;17.29
86094;BME280;76710;42.684;23.330;2024-03-23T11:32:50;94936.47;;;23.88;16.57
86094;BME280;76710;42.684;23.330;2024-03-23T11:35:44;94936.84;;;24.06;16.70
86094;BME280;76710;42.684;23.330;2024-03-23T11:38:14;94932.59;;;24.36;17.49
86094;BME280;76710;42.684;23.330;2024-03-23T11:40:45;94930.44;;;23.88;17.42
86094;BME280;76710;42.684;23.330;2024-03-23T11:43:13;94921.19;;;23.94;17.63
86094;BME280;76710;42.684;23.330;2024-03-23T11:45:46;94916.69;;;24.29;17.69
86094;BME280;76710;42.684;23.330;2024-03-23T11:48:14;94923.13;;;24.51;18.09
86094;BME280;76710;42.684;23.330;2024-03-23T11:50:46;94909.53;;;24.68;17.06
86094;BME280;76710;42.684;23.330;2024-03-23T11:53:15;94901.63;;;24.49;16.89
86094;BME280;76710;42.684;23.330;2024-03-23T11:58:11;94887.94;;;25.27;16.66
86094;BME280;76710;42.684;23.330;2024-03-23T12:00:37;94889.19;;;25.11;16.55
86094;BME280;76710;42.684;23.330;2024-03-23T12:03:03;94873.44;;;25.14;16.00
86094;BME280;76710;42.684;23.330;2024-03-23T12:05:30;94874.94;;;24.89;17.09
86094;BME280;76710;42.684;23.330;2024-03-23T12:08:29;94876.44;;;24.90;16.90
86094;BME280;76710;42.684;23.330;2024-03-23T12:11:09;94864.16;;;24.78;16.64
86094;BME280;76710;42.684;23.330;2024-03-23T12:13:37;94856.81;;;24.23;16.76
86094;BME280;76710;42.684;23.330;2024-03-23T12:16:24;94854.28;;;23.91;17.36
86094;BME280;76710;42.684;23.330;2024-03-23T12:18:51;94854.00;;;23.27;18.35
86094;BME280;76710;42.684;23.330;2024-03-23T12:21:17;94837.78;;;23.05;18.56
86094;BME280;76710;42.684;23.330;2024-03-23T12:23:44;94843.25;;;23.47;17.90
86094;BME280;76710;42.684;23.330;2024-03-23T12:26:12;94844.41;;;23.34;17.53
86094;BME280;76710;42.684;23.330;2024-03-23T12:28:38;94845.75;;;23.60;17.98
86094;BME280;76710;42.684;23.330;2024-03-23T12:31:04;94832.06;;;23.89;16.72
86094;BME280;76710;42.684;23.330;2024-03-23T12:33:33;94831.09;;;23.97;16.60
86094;BME280;76710;42.684;23.330;2024-03-23T12:35:58;94821.97;;;24.10;16.30
86094;BME280;76710;42.684;23.330;2024-03-23T12:38:24;94817.06;;;24.28;16.83
86094;BME280;76710;42.684;23.330;2024-03-23T12:40:49;94815.34;;;23.78;16.73
86094;BME280;76710;42.684;23.330;2024-03-23T12:43:18;94799.66;;;23.46;15.96
86094;BME280;76710;42.684;23.330;2024-03-23T12:45:50;94795.63;;;22.83;17.18
86094;BME280;76710;42.684;23.330;2024-03-23T12:48:16;94798.31;;;23.02;17.63
86094;BME280;76710;42.684;23.330;2024-03-23T12:50:41;94800.78;;;23.30;16.98
86094;BME280;76710;42.684;23.330;2024-03-23T12:53:07;94798.25;;;23.49;16.87
86094;BME280;76710;42.684;23.330;2024-03-23T12:55:34;94793.00;;;23.68;17.02
86094;BME280;76710;42.684;23.330;2024-03-23T12:58:00;94781.16;;;23.78;15.54
86094;BME280;76710;42.684;23.330;2024-03-23T13:00:25;94782.13;;;23.70;13.94
86094;BME280;76710;42.684;23.330;2024-03-23T13:02:51;94784.47;;;23.75;14.06
86094;BME280;76710;42.684;23.330;2024-03-23T13:05:17;94770.91;;;23.92;13.20
86094;BME280;76710;42.684;23.330;2024-03-23T13:07:42;94768.69;;;23.94;13.38
86094;BME280;76710;42.684;23.330;2024-03-23T13:10:08;94764.00;;;24.03;13.35
86094;BME280;76710;42.684;23.330;2024-03-23T13:12:34;94762.34;;;23.95;13.11
86094;BME280;76710;42.684;23.330;2024-03-23T13:14:59;94758.75;;;23.65;12.82
86094;BME280;76710;42.684;23.330;2024-03-23T13:17:26;94759.38;;;23.77;13.23
86094;BME280;76710;42.684;23.330;2024-03-23T13:19:53;94753.34;;;23.77;13.85
86094;BME280;76710;42.684;23.330;2024-03-23T13:22:22;94753.91;;;23.67;13.64
86094;BME280;76710;42.684;23.330;2024-03-23T13:24:48;94752.41;;;23.66;13.17
86094;BME280;76710;42.684;23.330;2024-03-23T13:27:13;94754.00;;;23.35;14.00
86094;BME280;76710;42.684;23.330;2024-03-23T13:29:40;94749.56;;;23.20;14.18
86094;BME280;76710;42.684;23.330;2024-03-23T13:32:06;94741.56;;;22.97;14.12
86094;BME280;76710;42.684;23.330;2024-03-23T13:34:32;94740.78;;;23.13;13.89
86094;BME280;76710;42.684;23.330;2024-03-23T13:36:58;94737.69;;;23.26;13.42
86094;BME280;76710;42.684;23.330;2024-03-23T13:39:24;94735.31;;;23.21;13.87
86094;BME280;76710;42.684;23.330;2024-03-23T13:41:50;94732.50;;;23.30;13.54
86094;BME280;76710;42.684;23.330;2024-03-23T13:44:16;94728.63;;;23.04;13.94
86094;BME280;76710;42.684;23.330;2024-03-23T13:46:43;94721.47;;;23.05;13.96
86094;BME280;76710;42.684;23.330;2024-03-23T13:49:29;94712.28;;;22.95;13.84
86094;BME280;76710;42.684;23.330;2024-03-23T13:51:56;94714.78;;;22.10;14.68
86094;BME280;76710;42.684;23.330;2024-03-23T13:54:23;94712.47;;;21.65;15.00
86094;BME280;76710;42.684;23.330;2024-03-23T13:56:50;94706.09;;;21.50;15.19
86094;BME280;76710;42.684;23.330;2024-03-23T13:59:16;94706.81;;;21.63;15.86
86094;BME280;76710;42.684;23.330;2024-03-23T14:01:42;94702.28;;;21.76;15.50
86094;BME280;76710;42.684;23.330;2024-03-23T14:04:08;94699.38;;;21.93;16.13